createdAt,value
2018-06-24T00:02:19.330Z,88.50
2018-06-24T00:04:47.640Z,88.60
2018-06-24T00:07:22.412Z,88.20
2018-06-24T00:09:50.534Z,88.40
2018-06-24T00:12:18.670Z,88.40
2018-06-24T00:17:14.804Z,88.60
2018-06-24T00:19:42.951Z,88.60
2018-06-24T00:22:17.902Z,88.60
2018-06-24T00:24:46.212Z,89.00
2018-06-24T00:27:14.381Z,88.80
2018-06-24T00:29:42.517Z,88.40
2018-06-24T00:32:10.725Z,88.50
2018-06-24T00:37:07.150Z,88.70
2018-06-24T00:39:35.532Z,88.50
2018-06-24T00:42:03.663Z,88.40
2018-06-24T00:44:31.955Z,88.50
2018-06-24T00:47:00.114Z,88.60
2018-06-24T00:49:28.431Z,88.40
2018-06-24T00:51:56.636Z,88.50
2018-06-24T00:54:24.895Z,88.60
2018-06-24T00:56:53.156Z,88.90
2018-06-24T00:59:32.821Z,89.00
2018-06-24T01:02:00.911Z,89.00
2018-06-24T01:04:29.058Z,89.00
2018-06-24T01:06:57.224Z,88.60
2018-06-24T01:09:25.704Z,89.00
2018-06-24T01:11:53.844Z,89.00
2018-06-24T01:14:22.027Z,89.20
2018-06-24T01:16:50.152Z,89.30
2018-06-24T01:19:18.309Z,88.80
2018-06-24T01:21:46.611Z,88.70
2018-06-24T01:24:14.719Z,88.70
2018-06-24T01:26:42.929Z,89.70
2018-06-24T01:29:11.135Z,89.10
2018-06-24T01:31:39.297Z,89.20
2018-06-24T01:34:07.758Z,89.40
2018-06-24T01:36:35.933Z,89.60
2018-06-24T01:39:05.986Z,89.60
2018-06-24T01:41:34.345Z,89.80
2018-06-24T01:44:02.481Z,89.70
2018-06-24T01:46:30.677Z,89.70
2018-06-24T01:48:58.807Z,89.50
2018-06-24T01:51:27.101Z,89.80
2018-06-24T01:53:55.306Z,90.10
2018-06-24T01:56:23.450Z,89.70
2018-06-24T01:58:51.614Z,89.30
2018-06-24T02:01:20.046Z,88.90
2018-06-24T02:03:48.176Z,89.30
2018-06-24T02:06:16.348Z,89.80
2018-06-24T02:08:44.466Z,89.90
2018-06-24T02:11:12.634Z,89.60
2018-06-24T02:13:40.730Z,89.80
2018-06-24T02:16:08.854Z,89.90
2018-06-24T02:18:37.000Z,90.00
2018-06-24T02:21:05.342Z,89.90
2018-06-24T02:23:33.506Z,90.00
2018-06-24T02:26:01.827Z,90.40
2018-06-24T02:28:29.980Z,90.00
2018-06-24T02:30:58.211Z,90.00
2018-06-24T02:33:26.569Z,90.00
2018-06-24T02:35:54.702Z,90.10
2018-06-24T02:38:22.887Z,90.40
2018-06-24T02:40:51.011Z,90.20
2018-06-24T02:43:19.361Z,90.10
2018-06-24T02:45:47.563Z,90.10
2018-06-24T02:48:15.847Z,90.00
2018-06-24T02:50:43.965Z,90.10
2018-06-24T02:53:12.130Z,89.90
2018-06-24T02:55:40.283Z,90.00
2018-06-24T02:58:08.967Z,89.80
2018-06-24T03:00:37.221Z,89.90
2018-06-24T03:03:05.427Z,89.80
2018-06-24T03:05:33.630Z,89.90
2018-06-24T03:08:01.814Z,90.00
2018-06-24T03:10:30.069Z,90.00
2018-06-24T03:12:58.280Z,90.10
2018-06-24T03:15:26.621Z,90.10
2018-06-24T03:17:54.761Z,90.00
2018-06-24T03:20:22.981Z,90.00
2018-06-24T03:22:51.292Z,90.00
2018-06-24T03:25:19.538Z,89.80
2018-06-24T03:27:47.837Z,89.40
2018-06-24T03:30:16.221Z,89.20
2018-06-24T03:32:44.382Z,89.10
2018-06-24T03:37:40.569Z,89.00
2018-06-24T03:40:09.299Z,88.90
2018-06-24T03:42:37.499Z,88.80
2018-06-24T03:45:06.169Z,89.00
2018-06-24T03:47:34.306Z,89.00
2018-06-24T03:50:02.595Z,88.80
2018-06-24T03:52:30.715Z,89.20
2018-06-24T04:01:46.070Z,88.50
2018-06-24T04:04:14.875Z,88.40
2018-06-24T04:06:43.057Z,88.10
2018-06-24T04:09:11.211Z,88.30
2018-06-24T04:11:39.454Z,88.40
2018-06-24T04:14:07.623Z,88.40
2018-06-24T04:16:36.184Z,88.20
2018-06-24T04:19:04.351Z,88.30
2018-06-24T04:21:32.534Z,88.10
2018-06-24T04:24:00.685Z,88.10
2018-06-24T04:26:28.805Z,88.10
2018-06-24T04:28:57.077Z,87.90
2018-06-24T04:31:25.221Z,88.00
2018-06-24T04:33:53.599Z,88.40
2018-06-24T04:36:21.829Z,88.60
2018-06-24T04:38:50.044Z,88.30
2018-06-24T04:41:18.207Z,88.10
2018-06-24T04:43:46.629Z,87.50
2018-06-24T04:46:14.888Z,87.70
2018-06-24T04:48:43.300Z,87.70
2018-06-24T04:51:11.470Z,87.50
2018-06-24T04:53:39.560Z,87.20
2018-06-24T04:56:07.698Z,87.10
2018-06-24T04:58:35.982Z,87.40
2018-06-24T05:01:04.332Z,87.80
2018-06-24T05:03:32.522Z,87.20
2018-06-24T05:06:00.733Z,86.90
2018-06-24T05:08:28.900Z,87.30
2018-06-24T05:10:57.132Z,87.10
2018-06-24T05:13:25.735Z,87.20
2018-06-24T05:15:53.859Z,87.40
2018-06-24T05:18:21.994Z,87.40
2018-06-24T05:20:50.096Z,87.60
2018-06-24T05:23:18.316Z,87.60
2018-06-24T05:25:46.606Z,87.30
2018-06-24T05:28:14.773Z,87.20
2018-06-24T05:30:43.073Z,87.10
2018-06-24T05:33:11.275Z,87.30
2018-06-24T05:35:39.453Z,87.20
2018-06-24T05:38:10.743Z,86.90
2018-06-24T05:40:39.072Z,87.10
2018-06-24T05:43:07.389Z,87.00
2018-06-24T05:45:35.687Z,87.00
2018-06-24T05:48:03.852Z,86.80
2018-06-24T05:50:32.081Z,86.50
2018-06-24T05:53:00.217Z,86.60
2018-06-24T05:55:28.441Z,86.50
2018-06-24T05:57:56.755Z,85.70
2018-06-24T06:00:25.061Z,86.20
2018-06-24T06:02:54.230Z,86.30
2018-06-24T06:05:22.884Z,86.40
2018-06-24T06:07:51.011Z,86.40
2018-06-24T06:10:19.261Z,86.20
2018-06-24T06:12:47.451Z,86.40
2018-06-24T06:15:15.647Z,85.70
2018-06-24T06:17:43.943Z,86.00
2018-06-24T06:20:12.076Z,85.70
2018-06-24T06:22:40.461Z,85.80
2018-06-24T06:25:08.849Z,85.70
2018-06-24T06:27:37.046Z,85.20
2018-06-24T06:30:05.821Z,85.10
2018-06-24T06:32:34.151Z,84.60
2018-06-24T06:35:02.854Z,85.00
2018-06-24T06:37:31.132Z,85.50
2018-06-24T06:39:59.437Z,85.20
2018-06-24T06:42:27.767Z,85.40
2018-06-24T06:44:56.140Z,85.40
2018-06-24T06:47:24.228Z,86.00
2018-06-24T06:49:52.380Z,86.50
2018-06-24T06:52:20.562Z,87.00
2018-06-24T06:54:48.979Z,87.10
2018-06-24T06:57:17.116Z,86.90
2018-06-24T06:59:45.297Z,86.80
2018-06-24T07:02:13.418Z,86.60
2018-06-24T07:04:41.658Z,86.80
2018-06-24T07:07:09.948Z,86.90
2018-06-24T07:09:38.087Z,86.90
2018-06-24T07:12:06.263Z,85.80
2018-06-24T07:14:34.489Z,85.10
2018-06-24T07:17:02.882Z,85.20
2018-06-24T07:19:31.071Z,85.20
2018-06-24T07:21:59.400Z,85.20
2018-06-24T07:24:27.651Z,85.70
2018-06-24T07:26:55.865Z,86.30
2018-06-24T07:29:24.009Z,86.30
2018-06-24T07:31:52.215Z,86.50
2018-06-24T07:34:20.609Z,86.60
2018-06-24T07:36:48.773Z,86.80
2018-06-24T07:41:45.088Z,86.40
2018-06-24T07:44:13.235Z,86.60
2018-06-24T07:46:41.393Z,86.40
2018-06-24T07:49:09.784Z,86.60
2018-06-24T07:51:38.072Z,86.40
2018-06-24T07:54:06.218Z,85.80
2018-06-24T07:56:34.372Z,85.80
2018-06-24T07:59:03.330Z,85.80
2018-06-24T08:01:31.682Z,86.30
2018-06-24T08:04:00.625Z,85.60
2018-06-24T08:06:28.786Z,86.90
2018-06-24T08:08:56.934Z,86.40
2018-06-24T08:11:25.222Z,86.80
2018-06-24T08:13:53.469Z,86.70
2018-06-24T08:16:21.679Z,86.40
2018-06-24T08:18:49.905Z,86.70
2018-06-24T08:21:18.329Z,86.40
2018-06-24T08:23:47.411Z,86.50
2018-06-24T08:26:15.597Z,86.80
2018-06-24T08:28:43.865Z,87.00
2018-06-24T08:31:12.087Z,87.10
2018-06-24T08:33:40.589Z,86.80
2018-06-24T08:36:08.785Z,86.90
2018-06-24T08:38:36.967Z,86.80
2018-06-24T08:41:05.376Z,86.90
2018-06-24T08:43:33.485Z,87.30
2018-06-24T08:46:01.746Z,87.80
2018-06-24T08:48:29.966Z,87.90
2018-06-24T08:50:58.112Z,87.20
2018-06-24T08:53:26.339Z,88.00
2018-06-24T08:55:54.542Z,87.80
2018-06-24T08:58:22.852Z,87.80
2018-06-24T09:00:51.199Z,88.40
2018-06-24T09:03:19.477Z,88.00
2018-06-24T09:05:47.723Z,87.40
2018-06-24T09:08:15.886Z,85.90
2018-06-24T09:10:44.055Z,85.90
2018-06-24T09:13:12.255Z,87.30
2018-06-24T09:15:40.421Z,87.80
2018-06-24T09:18:08.664Z,88.00
2018-06-24T09:20:36.982Z,87.70
2018-06-24T09:23:06.034Z,88.10
2018-06-24T09:25:34.197Z,87.60
2018-06-24T09:28:02.465Z,87.00
2018-06-24T09:30:30.899Z,86.70
2018-06-24T09:32:59.293Z,86.30
2018-06-24T09:35:27.525Z,86.80
2018-06-24T09:37:55.895Z,85.80
2018-06-24T09:40:24.067Z,85.80
2018-06-24T09:42:52.248Z,86.60
2018-06-24T09:45:20.479Z,86.30
2018-06-24T09:47:48.936Z,85.10
2018-06-24T09:50:17.289Z,85.60
2018-06-24T09:52:45.602Z,85.60
2018-06-24T09:55:13.730Z,85.10
2018-06-24T09:57:41.910Z,84.40
2018-06-24T10:00:15.597Z,84.00
2018-06-24T10:02:43.887Z,84.80
2018-06-24T10:05:12.174Z,85.50
2018-06-24T10:07:40.425Z,86.30
2018-06-24T10:10:08.612Z,86.00
2018-06-24T10:12:36.996Z,85.00
2018-06-24T10:15:05.181Z,86.30
2018-06-24T10:17:33.369Z,84.70
2018-06-24T10:20:01.619Z,85.90
2018-06-24T10:22:29.957Z,84.00
2018-06-24T10:24:58.121Z,85.30
2018-06-24T10:27:26.324Z,83.90
2018-06-24T10:29:54.658Z,84.60
2018-06-24T10:32:22.905Z,85.60
2018-06-24T10:34:51.247Z,83.40
2018-06-24T10:37:19.458Z,84.00
2018-06-24T10:39:47.809Z,84.10
2018-06-24T10:42:16.081Z,84.20
2018-06-24T10:44:44.297Z,83.20
2018-06-24T10:47:12.570Z,84.80
2018-06-24T10:49:40.796Z,85.00
2018-06-24T10:52:09.087Z,84.20
2018-06-24T10:54:37.357Z,83.50
2018-06-24T10:57:05.611Z,84.20
2018-06-24T10:59:33.829Z,83.40
2018-06-24T11:02:02.113Z,84.00
2018-06-24T11:04:30.312Z,84.20
2018-06-24T11:06:58.511Z,84.50
2018-06-24T11:09:27.119Z,84.50
2018-06-24T11:11:55.298Z,86.00
2018-06-24T11:14:23.514Z,85.70
2018-06-24T11:16:51.698Z,85.50
2018-06-24T11:19:19.868Z,84.30
2018-06-24T11:21:48.103Z,82.80
2018-06-24T11:24:16.261Z,83.60
2018-06-24T11:26:44.767Z,82.30
2018-06-24T11:29:13.142Z,83.10
2018-06-24T11:31:41.391Z,82.50
2018-06-24T11:34:09.632Z,83.90
2018-06-24T11:36:37.941Z,83.00
2018-06-24T11:39:08.623Z,83.40
2018-06-24T11:44:07.098Z,82.90
2018-06-24T11:46:35.532Z,81.50
2018-06-24T11:49:05.633Z,80.90
2018-06-24T11:51:33.788Z,80.90
2018-06-24T11:54:02.263Z,81.80
2018-06-24T11:56:30.371Z,82.30
2018-06-24T11:58:58.616Z,83.50
2018-06-24T12:01:26.852Z,83.50
2018-06-24T12:03:55.004Z,83.80
2018-06-24T12:06:23.182Z,82.70
2018-06-24T12:08:51.402Z,82.10
2018-06-24T12:11:19.655Z,81.00
2018-06-24T12:13:47.858Z,81.50
2018-06-24T12:16:16.074Z,80.20
2018-06-24T12:18:44.363Z,81.40
2018-06-24T12:21:12.598Z,81.60
2018-06-24T12:23:40.843Z,80.80
2018-06-24T12:26:09.073Z,80.90
2018-06-24T12:28:37.353Z,80.30
2018-06-24T12:31:05.673Z,81.00
2018-06-24T12:33:33.879Z,79.80
2018-06-24T12:36:02.082Z,79.80
2018-06-24T12:38:30.385Z,80.90
2018-06-24T12:40:58.565Z,79.60
2018-06-24T12:43:27.817Z,79.60
2018-06-24T12:45:55.995Z,79.00
2018-06-24T12:48:24.249Z,79.80
2018-06-24T12:50:52.593Z,80.90
2018-06-24T12:53:21.062Z,80.60
2018-06-24T12:55:49.278Z,81.30
2018-06-24T12:58:17.551Z,81.50
2018-06-24T13:00:45.959Z,81.80
2018-06-24T13:03:13.940Z,81.70
2018-06-24T13:05:42.679Z,80.80
2018-06-24T13:08:10.940Z,80.70
2018-06-24T13:10:39.216Z,81.00
2018-06-24T13:13:07.495Z,79.70
2018-06-24T13:15:36.460Z,79.80
2018-06-24T13:18:05.242Z,78.70
2018-06-24T13:20:33.432Z,79.20
2018-06-24T13:23:01.767Z,78.30
2018-06-24T13:25:30.062Z,78.50
2018-06-24T13:27:58.424Z,78.50
2018-06-24T13:30:26.887Z,78.20
2018-06-24T13:32:55.107Z,78.10
2018-06-24T13:35:23.541Z,78.20
2018-06-24T13:37:51.768Z,78.30
2018-06-24T13:40:20.082Z,78.40
2018-06-24T13:42:48.255Z,78.50
2018-06-24T13:45:16.419Z,79.10
2018-06-24T13:47:44.712Z,78.90
2018-06-24T13:50:13.405Z,78.60
2018-06-24T13:52:41.888Z,78.40
2018-06-24T13:55:10.086Z,77.70
2018-06-24T13:57:38.404Z,77.60
2018-06-24T14:00:06.609Z,77.30
2018-06-24T14:02:35.237Z,78.10
2018-06-24T14:05:03.667Z,78.80
2018-06-24T14:07:32.460Z,79.40
2018-06-24T14:10:01.692Z,79.40
2018-06-24T14:12:29.845Z,78.70
2018-06-24T14:14:58.133Z,78.80
2018-06-24T14:17:26.350Z,78.80
2018-06-24T14:19:54.633Z,78.90
2018-06-24T14:22:22.844Z,77.80
2018-06-24T14:24:51.148Z,77.50
2018-06-24T14:27:19.326Z,77.20
2018-06-24T14:29:47.593Z,77.10
2018-06-24T14:32:15.967Z,77.00
2018-06-24T14:37:12.249Z,76.70
2018-06-24T14:39:40.592Z,75.40
2018-06-24T14:42:08.842Z,75.80
2018-06-24T14:44:37.069Z,75.70
2018-06-24T14:47:05.247Z,75.70
2018-06-24T14:49:33.442Z,75.30
2018-06-24T14:52:01.874Z,75.50
2018-06-24T14:54:30.105Z,75.10
2018-06-24T14:56:58.352Z,75.00
2018-06-24T14:59:26.571Z,74.90
2018-06-24T15:01:54.820Z,75.70
2018-06-24T15:04:23.182Z,75.00
2018-06-24T15:06:51.403Z,74.90
2018-06-24T15:09:19.642Z,74.30
2018-06-24T15:11:47.820Z,74.50
2018-06-24T15:14:16.058Z,74.70
2018-06-24T15:16:44.202Z,74.20
2018-06-24T15:24:08.841Z,73.80
2018-06-24T15:26:37.068Z,73.70
2018-06-24T15:29:05.709Z,73.40
2018-06-24T15:31:34.043Z,73.00
2018-06-24T15:34:02.347Z,73.00
2018-06-24T15:36:30.980Z,73.10
2018-06-24T15:38:59.366Z,72.90
2018-06-24T15:41:27.632Z,73.00
2018-06-24T15:43:55.892Z,73.20
2018-06-24T15:46:24.145Z,73.60
2018-06-24T15:48:52.538Z,74.50
2018-06-24T15:51:20.767Z,74.60
2018-06-24T15:53:49.086Z,74.80
2018-06-24T15:56:17.290Z,74.70
2018-06-24T15:58:45.594Z,74.60
2018-06-24T16:01:13.805Z,75.10
2018-06-24T16:03:42.252Z,74.50
2018-06-24T16:06:11.095Z,74.20
2018-06-24T16:08:39.549Z,75.10
2018-06-24T16:11:07.939Z,75.40
2018-06-24T16:13:36.834Z,75.40
2018-06-24T16:16:05.235Z,75.90
2018-06-24T16:18:33.496Z,76.50
2018-06-24T16:21:01.934Z,77.10
2018-06-24T16:23:31.168Z,77.20
2018-06-24T16:25:59.423Z,76.80
2018-06-24T16:28:27.633Z,77.20
2018-06-24T16:30:56.437Z,77.30
2018-06-24T16:33:24.637Z,77.30
2018-06-24T16:35:52.985Z,77.20
2018-06-24T16:38:21.416Z,78.00
2018-06-24T16:40:49.647Z,78.70
2018-06-24T16:43:17.851Z,79.00
2018-06-24T16:45:46.135Z,79.10
2018-06-24T16:48:14.399Z,79.30
2018-06-24T16:50:42.682Z,79.30
2018-06-24T16:53:10.985Z,78.90
2018-06-24T16:55:39.272Z,79.30
2018-06-24T17:00:35.626Z,79.40
2018-06-24T17:03:03.871Z,79.20
2018-06-24T17:05:32.180Z,79.30
2018-06-24T17:08:00.424Z,79.50
2018-06-24T17:10:28.650Z,79.50
2018-06-24T17:12:56.855Z,80.30
2018-06-24T17:15:25.188Z,81.20
2018-06-24T17:17:53.490Z,82.10
2018-06-24T17:20:22.512Z,82.20
2018-06-24T17:22:50.822Z,82.40
2018-06-24T17:25:19.277Z,82.80
2018-06-24T17:27:47.508Z,83.10
2018-06-24T17:30:16.348Z,83.10
2018-06-24T17:32:44.647Z,83.60
2018-06-24T17:35:12.835Z,84.30
2018-06-24T17:37:41.037Z,85.00
2018-06-24T17:40:09.352Z,85.20
2018-06-24T17:42:38.106Z,85.50
2018-06-24T17:45:06.272Z,86.10
2018-06-24T17:47:34.530Z,85.70
2018-06-24T17:50:02.636Z,85.80
2018-06-24T17:52:31.125Z,85.80
2018-06-24T17:54:59.299Z,85.90
2018-06-24T17:57:27.585Z,86.20
2018-06-24T17:59:55.782Z,86.30
2018-06-24T18:02:24.002Z,86.40
2018-06-24T18:04:52.242Z,85.90
2018-06-24T18:07:20.681Z,86.50
2018-06-24T18:09:48.982Z,86.30
2018-06-24T18:12:17.215Z,86.00
2018-06-24T18:14:45.447Z,86.40
2018-06-24T18:17:13.688Z,86.70
2018-06-24T18:19:41.938Z,86.60
2018-06-24T18:22:10.325Z,86.80
2018-06-24T18:24:38.489Z,86.90
2018-06-24T18:27:07.076Z,86.90
2018-06-24T18:29:35.395Z,87.10
2018-06-24T18:32:03.653Z,87.50
2018-06-24T18:34:31.886Z,87.80
2018-06-24T18:37:00.147Z,87.70
2018-06-24T18:39:28.361Z,87.50
2018-06-24T18:41:56.607Z,87.70
2018-06-24T18:44:24.848Z,87.60
2018-06-24T18:46:53.542Z,87.60
2018-06-24T18:49:21.954Z,87.40
2018-06-24T18:51:50.486Z,87.70
2018-06-24T18:54:18.735Z,87.60
2018-06-24T18:56:47.005Z,87.40
2018-06-24T18:59:15.379Z,87.50
2018-06-24T19:01:43.707Z,87.50
2018-06-24T19:04:12.141Z,87.60
2018-06-24T19:06:40.440Z,87.60
2018-06-24T19:09:11.155Z,87.60
2018-06-24T19:11:39.541Z,87.50
2018-06-24T19:14:08.662Z,87.60
2018-06-24T19:16:37.822Z,87.80
2018-06-24T19:19:06.283Z,87.80
2018-06-24T19:21:34.593Z,87.90
2018-06-24T19:24:03.306Z,88.00
2018-06-24T19:26:31.571Z,88.00
2018-06-24T19:28:59.911Z,88.00
2018-06-24T19:31:28.194Z,88.10
2018-06-24T19:33:56.605Z,88.20
2018-06-24T19:36:25.030Z,88.30
2018-06-24T19:38:53.519Z,88.50
2018-06-24T19:41:22.379Z,88.50
2018-06-24T19:43:50.701Z,88.60
2018-06-24T19:46:19.294Z,88.60
2018-06-24T19:48:47.989Z,88.70
2018-06-24T19:51:16.296Z,88.60
2018-06-24T19:53:44.605Z,88.70
2018-06-24T19:56:12.977Z,88.90
2018-06-24T19:58:41.329Z,88.80
2018-06-24T20:01:09.689Z,89.00
2018-06-24T20:03:37.932Z,89.70
2018-06-24T20:06:06.285Z,89.00
2018-06-24T20:11:02.506Z,88.90
2018-06-24T20:13:30.802Z,88.80
2018-06-24T20:15:58.999Z,88.80
2018-06-24T20:18:27.805Z,88.90
2018-06-24T20:20:56.058Z,89.00
2018-06-24T20:23:24.281Z,87.20
2018-06-24T20:25:52.506Z,86.00
2018-06-24T20:28:20.692Z,85.20
2018-06-24T20:30:48.974Z,84.60
2018-06-24T20:33:17.283Z,84.30
2018-06-24T20:35:45.598Z,82.90
2018-06-24T20:38:13.948Z,80.80
2018-06-24T20:40:42.210Z,81.40
2018-06-24T20:43:10.506Z,81.80
2018-06-24T20:45:39.003Z,82.40
2018-06-24T20:48:07.629Z,82.20
2018-06-24T20:50:36.309Z,82.40
2018-06-24T20:55:33.757Z,82.30
2018-06-24T20:58:02.066Z,82.50
2018-06-24T21:00:30.384Z,82.50
2018-06-24T21:02:58.599Z,82.60
2018-06-24T21:05:26.772Z,82.70
2018-06-24T21:07:55.603Z,82.70
2018-06-24T21:10:23.797Z,82.50
2018-06-24T21:12:52.055Z,82.40
2018-06-24T21:17:48.501Z,82.20
2018-06-24T21:20:16.712Z,82.90
2018-06-24T21:22:44.929Z,83.50
2018-06-24T21:25:13.345Z,84.10
2018-06-24T21:27:41.620Z,84.60
2018-06-24T21:30:10.180Z,85.00
2018-06-24T21:32:38.421Z,85.50
2018-06-24T21:35:06.687Z,85.90
2018-06-24T21:37:34.943Z,86.10
2018-06-24T21:40:03.235Z,86.40
2018-06-24T21:42:31.495Z,86.70
2018-06-24T21:44:59.629Z,87.50
2018-06-24T21:47:27.789Z,87.50
2018-06-24T21:49:55.983Z,87.00
2018-06-24T21:52:24.230Z,87.40
2018-06-24T21:54:52.505Z,87.70
2018-06-24T21:57:20.746Z,87.80
2018-06-24T21:59:48.988Z,87.90
2018-06-24T22:02:17.228Z,88.10
2018-06-24T22:04:45.436Z,88.20
2018-06-24T22:07:13.821Z,88.20
2018-06-24T22:09:41.984Z,88.30
2018-06-24T22:12:10.221Z,88.40
2018-06-24T22:14:38.408Z,88.40
2018-06-24T22:17:07.060Z,88.50
2018-06-24T22:19:35.213Z,88.90
2018-06-24T22:22:03.394Z,89.00
2018-06-24T22:24:31.551Z,88.90
2018-06-24T22:26:59.792Z,89.00
2018-06-24T22:29:27.906Z,89.10
2018-06-24T22:31:56.151Z,89.40
2018-06-24T22:34:24.266Z,89.30
2018-06-24T22:36:52.517Z,89.40
2018-06-24T22:39:20.720Z,89.40
2018-06-24T22:41:48.894Z,89.50
2018-06-24T22:46:44.908Z,89.60
2018-06-24T22:49:13.064Z,89.80
2018-06-24T22:51:41.248Z,89.70
2018-06-24T22:54:09.560Z,89.60
2018-06-24T22:56:37.712Z,89.70
2018-06-24T22:59:17.454Z,89.60
2018-06-24T23:01:45.658Z,89.50
2018-06-24T23:04:13.868Z,89.40
2018-06-24T23:06:42.056Z,89.50
2018-06-24T23:09:10.166Z,89.50
2018-06-24T23:11:38.643Z,89.50
2018-06-24T23:14:07.032Z,89.50
2018-06-24T23:16:35.294Z,89.50
2018-06-24T23:19:03.462Z,89.50
2018-06-24T23:21:31.651Z,89.50
2018-06-24T23:23:59.994Z,89.50
2018-06-24T23:26:28.093Z,89.60
2018-06-24T23:28:56.453Z,89.60
2018-06-24T23:31:24.730Z,89.80
2018-06-24T23:33:52.916Z,89.80
2018-06-24T23:36:21.123Z,89.80
2018-06-24T23:38:49.332Z,90.00
2018-06-24T23:41:17.556Z,90.00
2018-06-24T23:43:45.682Z,90.00
2018-06-24T23:46:13.773Z,90.00
2018-06-24T23:48:41.896Z,90.10
2018-06-24T23:51:10.159Z,90.10
2018-06-24T23:53:38.462Z,90.20
2018-06-24T23:56:06.609Z,90.20
2018-06-24T23:58:34.784Z,90.30
